createdAt,value
2022-08-14T00:02:03.941Z,100117.94
2022-08-14T00:04:35.660Z,100112.31
2022-08-14T00:07:11.521Z,100109.28
2022-08-14T00:10:01.843Z,100098.94
2022-08-14T00:12:39.433Z,100095.66
2022-08-14T00:15:37.700Z,100093.56
2022-08-14T00:18:14.434Z,100089.72
2022-08-14T00:20:43.222Z,100079.13
2022-08-14T00:23:16.847Z,100074.41
2022-08-14T00:25:53.758Z,100077.31
2022-08-14T00:28:35.297Z,100081.25
2022-08-14T00:31:03.765Z,100068.28
2022-08-14T00:33:50.902Z,100064.31
2022-08-14T00:36:48.134Z,100068.78
2022-08-14T00:39:09.265Z,100071.75
2022-08-14T00:41:38.826Z,100067.91
2022-08-14T00:44:06.744Z,100073.53
2022-08-14T00:46:33.741Z,100078.03
2022-08-14T00:49:00.878Z,100077.31
2022-08-14T00:51:34.678Z,100072.59
2022-08-14T00:54:21.001Z,100064.69
2022-08-14T00:57:12.447Z,100069.19
2022-08-14T00:59:39.531Z,100067.00
2022-08-14T01:02:09.533Z,100068.47
2022-08-14T01:04:53.367Z,100067.22
2022-08-14T01:07:23.123Z,100073.06
2022-08-14T01:09:57.002Z,100068.13
2022-08-14T01:12:27.358Z,100070.75
2022-08-14T01:15:02.220Z,100061.91
2022-08-14T01:17:52.253Z,100054.81
2022-08-14T01:20:40.980Z,100058.97
2022-08-14T01:23:16.855Z,100054.16
2022-08-14T01:25:51.271Z,100051.88
2022-08-14T01:28:47.046Z,100050.06
2022-08-14T01:31:16.170Z,100045.00
2022-08-14T01:33:59.647Z,100039.41
2022-08-14T01:36:37.036Z,100029.47
2022-08-14T01:39:13.653Z,100023.31
2022-08-14T01:41:43.977Z,100016.22
2022-08-14T01:44:32.620Z,100018.63
2022-08-14T01:47:05.921Z,100000.78
2022-08-14T01:49:35.495Z,100000.91
2022-08-14T01:52:03.617Z,100012.38
2022-08-14T01:54:37.996Z,100012.84
2022-08-14T01:57:11.425Z,100012.72
2022-08-14T01:59:41.098Z,100012.44
2022-08-14T02:02:17.561Z,100006.41
2022-08-14T02:04:56.237Z,100006.41
2022-08-14T02:07:34.368Z,100006.88
2022-08-14T02:10:15.870Z,100005.97
2022-08-14T02:12:54.227Z,100005.63
2022-08-14T02:15:25.744Z,100001.16
2022-08-14T02:17:53.129Z,100004.72
2022-08-14T02:20:23.690Z,99996.38
2022-08-14T02:22:54.709Z,100003.91
2022-08-14T02:25:22.447Z,99985.38
2022-08-14T02:28:25.073Z,99997.84
2022-08-14T02:30:43.110Z,99993.03
2022-08-14T02:33:10.668Z,99992.94
2022-08-14T02:35:41.310Z,99987.19
2022-08-14T02:38:11.789Z,99981.94
2022-08-14T02:40:48.773Z,99977.59
2022-08-14T02:43:17.338Z,99980.34
2022-08-14T02:45:49.777Z,99974.97
2022-08-14T02:49:03.722Z,99987.78
2022-08-14T02:51:07.130Z,99980.47
2022-08-14T02:53:38.263Z,99971.91
2022-08-14T02:56:30.097Z,99978.41
2022-08-14T02:59:01.271Z,99970.97
2022-08-14T03:01:31.280Z,99971.25
2022-08-14T03:04:13.452Z,99967.19
2022-08-14T03:06:57.856Z,99970.06
2022-08-14T03:09:42.066Z,99977.00
2022-08-14T03:12:26.982Z,99975.88
2022-08-14T03:15:03.075Z,99972.75
2022-08-14T03:17:32.007Z,99969.91
2022-08-14T03:20:11.337Z,99967.31
2022-08-14T03:22:39.879Z,99962.13
2022-08-14T03:25:10.772Z,99967.63
2022-08-14T03:27:48.569Z,99970.25
2022-08-14T03:30:39.514Z,99974.25
2022-08-14T03:33:13.427Z,99972.31
2022-08-14T03:36:05.587Z,99973.53
2022-08-14T03:39:10.505Z,99964.50
2022-08-14T03:41:23.591Z,99969.69
2022-08-14T03:43:57.765Z,99963.50
2022-08-14T03:46:38.739Z,99956.28
2022-08-14T03:49:24.403Z,99958.78
2022-08-14T03:51:55.790Z,99959.94
2022-08-14T03:54:24.497Z,99956.63
2022-08-14T03:56:51.338Z,99961.44
2022-08-14T03:59:19.669Z,99951.47
2022-08-14T04:01:58.185Z,99953.75
2022-08-14T04:04:32.416Z,99961.78
2022-08-14T04:07:01.131Z,99950.09
2022-08-14T04:09:29.190Z,99954.34
2022-08-14T04:11:57.916Z,99952.94
2022-08-14T04:14:25.111Z,99955.09
2022-08-14T04:16:51.829Z,99949.13
2022-08-14T04:19:23.798Z,99941.03
2022-08-14T04:22:02.060Z,99940.00
2022-08-14T04:24:38.352Z,99943.53
2022-08-14T04:27:11.439Z,99946.84
2022-08-14T04:29:40.141Z,99941.91
2022-08-14T04:33:00.794Z,99952.75
2022-08-14T04:34:57.489Z,99946.13
2022-08-14T04:37:43.307Z,99948.75
2022-08-14T04:40:32.196Z,99949.13
2022-08-14T04:43:18.005Z,99954.75
2022-08-14T04:45:45.500Z,99960.03
2022-08-14T04:48:39.859Z,99965.50
2022-08-14T04:51:16.499Z,99957.81
2022-08-14T04:53:45.980Z,99948.78
2022-08-14T04:56:31.252Z,99955.41
2022-08-14T04:59:09.746Z,99953.44
2022-08-14T05:01:47.882Z,99950.69
2022-08-14T05:04:20.802Z,99953.53
2022-08-14T05:06:53.721Z,99948.06
2022-08-14T05:09:23.715Z,99947.53
2022-08-14T05:11:51.628Z,99945.66
2022-08-14T05:14:46.817Z,99939.97
2022-08-14T05:17:11.016Z,99946.06
2022-08-14T05:19:45.019Z,99947.38
2022-08-14T05:22:27.089Z,99943.66
2022-08-14T05:24:54.040Z,99931.75
2022-08-14T05:27:23.042Z,99942.28
2022-08-14T05:29:53.600Z,99933.38
2022-08-14T05:32:22.925Z,99935.22
2022-08-14T05:34:57.437Z,99935.59
2022-08-14T05:37:24.463Z,99936.84
2022-08-14T05:39:54.242Z,99943.84
2022-08-14T05:42:29.314Z,99933.31
2022-08-14T05:44:59.685Z,99941.66
2022-08-14T05:47:33.713Z,99949.53
2022-08-14T05:50:17.655Z,99939.00
2022-08-14T05:52:50.178Z,99939.47
2022-08-14T05:55:22.959Z,99946.50
2022-08-14T05:57:52.999Z,99936.31
2022-08-14T06:00:24.441Z,99940.31
2022-08-14T06:03:00.440Z,99939.66
2022-08-14T06:05:29.027Z,99942.25
2022-08-14T06:07:58.500Z,99930.59
2022-08-14T06:10:28.365Z,99921.34
2022-08-14T06:12:57.375Z,99916.53
2022-08-14T06:15:30.100Z,99919.03
2022-08-14T06:17:59.597Z,99927.03
2022-08-14T06:20:28.144Z,99924.09
2022-08-14T06:22:56.250Z,99924.09
2022-08-14T06:25:24.887Z,99921.06
2022-08-14T06:27:52.165Z,99916.03
2022-08-14T06:30:22.151Z,99918.41
2022-08-14T06:32:52.581Z,99908.97
2022-08-14T06:35:23.369Z,99908.53
2022-08-14T06:37:55.579Z,99892.72
2022-08-14T06:40:34.214Z,99894.88
2022-08-14T06:43:07.210Z,99891.94
2022-08-14T06:45:37.277Z,99877.72
2022-08-14T06:48:32.725Z,99877.94
2022-08-14T06:51:02.515Z,99880.66
2022-08-14T06:53:30.231Z,99874.75
2022-08-14T06:56:01.023Z,99877.41
2022-08-14T06:58:30.751Z,99869.97
2022-08-14T07:01:25.151Z,99866.19
2022-08-14T07:04:24.091Z,99859.72
2022-08-14T07:06:55.594Z,99862.97
2022-08-14T07:09:27.895Z,99863.03
2022-08-14T07:11:54.999Z,99867.50
2022-08-14T07:14:23.040Z,99873.94
2022-08-14T07:16:49.739Z,99869.44
2022-08-14T07:19:20.781Z,99867.81
2022-08-14T07:21:48.199Z,99860.78
2022-08-14T07:24:26.248Z,99863.56
2022-08-14T07:26:57.850Z,99861.75
2022-08-14T07:29:28.993Z,99862.88
2022-08-14T07:31:56.220Z,99867.84
2022-08-14T07:34:36.600Z,99868.88
2022-08-14T07:37:07.767Z,99876.59
2022-08-14T07:39:36.709Z,99875.50
2022-08-14T07:42:06.165Z,99873.44
2022-08-14T07:44:45.813Z,99881.63
2022-08-14T07:47:15.766Z,99875.22
2022-08-14T07:50:01.776Z,99879.81
2022-08-14T07:52:31.969Z,99879.31
2022-08-14T07:55:00.359Z,99884.69
2022-08-14T07:57:28.157Z,99882.72
2022-08-14T07:59:54.868Z,99878.69
2022-08-14T08:02:22.181Z,99871.09
2022-08-14T08:04:54.560Z,99871.91
2022-08-14T08:07:29.460Z,99873.66
2022-08-14T08:09:57.961Z,99866.94
2022-08-14T08:12:28.130Z,99875.56
2022-08-14T08:15:05.833Z,99885.88
2022-08-14T08:17:42.793Z,99880.78
2022-08-14T08:20:27.251Z,99878.72
2022-08-14T08:23:00.379Z,99878.59
2022-08-14T08:25:30.499Z,99878.09
2022-08-14T08:28:08.064Z,99874.19
2022-08-14T08:30:37.738Z,99867.13
2022-08-14T08:33:16.656Z,99870.03
2022-08-14T08:35:50.358Z,99868.44
2022-08-14T08:39:15.149Z,99871.59
2022-08-14T08:41:09.619Z,99868.63
2022-08-14T08:43:38.913Z,99858.00
2022-08-14T08:46:21.041Z,99853.34
2022-08-14T08:48:54.012Z,99861.44
2022-08-14T08:51:51.061Z,99855.47
2022-08-14T08:54:26.684Z,99849.53
2022-08-14T08:56:58.393Z,99841.41
2022-08-14T08:59:34.330Z,99844.69
2022-08-14T09:02:06.724Z,99839.91
2022-08-14T09:04:45.264Z,99835.88
2022-08-14T09:07:26.202Z,99836.25
2022-08-14T09:09:59.243Z,99832.59
2022-08-14T09:12:36.076Z,99831.75
2022-08-14T09:15:11.433Z,99823.56
2022-08-14T09:17:43.294Z,99832.00
2022-08-14T09:20:14.037Z,99829.00
2022-08-14T09:22:54.628Z,99839.31
2022-08-14T09:25:59.005Z,99827.06
2022-08-14T09:28:10.297Z,99822.81
2022-08-14T09:30:40.695Z,99819.84
2022-08-14T09:33:23.297Z,99808.09
2022-08-14T09:36:09.076Z,99813.53
2022-08-14T09:38:54.760Z,99807.09
2022-08-14T09:42:21.564Z,99798.00
2022-08-14T09:45:16.597Z,99798.59
2022-08-14T09:47:51.749Z,99793.03
2022-08-14T09:50:31.274Z,99801.06
2022-08-14T09:53:04.841Z,99794.34
2022-08-14T09:55:42.630Z,99801.34
2022-08-14T09:58:19.407Z,99799.34
2022-08-14T10:00:49.358Z,99799.75
2022-08-14T10:03:34.338Z,99796.25
2022-08-14T10:06:13.621Z,99799.56
2022-08-14T10:09:12.051Z,99802.34
2022-08-14T10:11:58.983Z,99791.09
2022-08-14T10:14:35.645Z,99797.78
2022-08-14T10:17:06.542Z,99794.75
2022-08-14T10:19:46.859Z,99780.78
2022-08-14T10:23:12.296Z,99771.72
2022-08-14T10:25:15.968Z,99764.28
2022-08-14T10:27:46.377Z,99764.03
2022-08-14T10:30:22.779Z,99768.03
2022-08-14T10:32:54.455Z,99755.75
2022-08-14T10:35:30.897Z,99749.81
2022-08-14T10:38:00.644Z,99750.63
2022-08-14T10:40:37.731Z,99737.25
2022-08-14T10:43:18.447Z,99741.53
2022-08-14T10:46:03.961Z,99724.44
2022-08-14T10:48:45.863Z,99700.78
2022-08-14T10:51:16.661Z,99698.78
2022-08-14T10:53:56.838Z,99688.88
2022-08-14T10:56:35.115Z,99688.53
2022-08-14T10:59:07.125Z,99694.47
2022-08-14T11:01:40.949Z,99703.19
2022-08-14T11:04:25.320Z,99682.22
2022-08-14T11:06:56.267Z,99683.00
2022-08-14T11:09:23.340Z,99673.13
2022-08-14T11:12:33.770Z,99683.41
2022-08-14T11:14:51.143Z,99676.31
2022-08-14T11:17:28.542Z,99662.81
2022-08-14T11:20:01.725Z,99660.44
2022-08-14T11:22:55.590Z,99673.50
2022-08-14T11:25:23.521Z,99664.41
2022-08-14T11:27:52.496Z,99660.47
2022-08-14T11:30:50.526Z,99659.28
2022-08-14T11:33:09.322Z,99667.19
2022-08-14T11:35:44.292Z,99662.81
2022-08-14T11:38:17.046Z,99669.94
2022-08-14T11:40:46.722Z,99672.03
2022-08-14T11:43:16.201Z,99669.66
2022-08-14T11:45:47.925Z,99662.06
2022-08-14T11:49:02.432Z,99676.72
2022-08-14T11:51:13.377Z,99668.44
2022-08-14T11:53:42.131Z,99666.13
2022-08-14T11:56:11.099Z,99660.59
2022-08-14T11:58:38.525Z,99659.78
2022-08-14T12:01:09.565Z,99670.06
2022-08-14T12:03:57.164Z,99652.59
2022-08-14T12:06:29.687Z,99651.78
2022-08-14T12:09:08.754Z,99644.28
2022-08-14T12:11:43.811Z,99638.31
2022-08-14T12:14:30.066Z,99635.19
2022-08-14T12:17:05.130Z,99634.00
2022-08-14T12:19:33.461Z,99628.81
2022-08-14T12:22:02.802Z,99628.81
2022-08-14T12:24:36.049Z,99624.88
2022-08-14T12:27:06.619Z,99617.72
2022-08-14T12:29:34.865Z,99607.44
2022-08-14T12:32:08.893Z,99606.25
2022-08-14T12:34:40.715Z,99592.41
2022-08-14T12:37:12.012Z,99581.31
2022-08-14T12:39:39.614Z,99584.91
2022-08-14T12:42:07.693Z,99587.66
2022-08-14T12:44:39.547Z,99584.47
2022-08-14T12:47:17.550Z,99571.00
2022-08-14T12:49:52.963Z,99565.47
2022-08-14T12:52:47.326Z,99563.94
2022-08-14T12:55:32.337Z,99560.38
2022-08-14T12:58:02.335Z,99552.81
2022-08-14T13:01:14.246Z,99551.25
2022-08-14T13:03:37.525Z,99556.00
2022-08-14T13:06:04.448Z,99546.91
2022-08-14T13:08:33.702Z,99542.53
2022-08-14T13:11:02.642Z,99533.84
2022-08-14T13:13:34.315Z,99540.91
2022-08-14T13:16:05.158Z,99536.13
2022-08-14T13:18:58.333Z,99527.81
2022-08-14T13:21:26.293Z,99522.28
2022-08-14T13:23:54.638Z,99519.91
2022-08-14T13:26:28.143Z,99521.09
2022-08-14T13:29:02.754Z,99503.22
2022-08-14T13:31:34.142Z,99517.03
2022-08-14T13:34:01.320Z,99514.66
2022-08-14T13:36:51.527Z,99510.25
2022-08-14T13:39:19.832Z,99497.53
2022-08-14T13:41:48.069Z,99500.72
2022-08-14T13:44:26.679Z,99487.19
2022-08-14T13:46:53.330Z,99497.13
2022-08-14T13:49:19.936Z,99491.56
2022-08-14T13:51:53.302Z,99478.72
2022-08-14T13:54:21.106Z,99478.75
2022-08-14T13:56:49.096Z,99483.44
2022-08-14T13:59:20.496Z,99473.00
2022-08-14T14:02:06.846Z,99473.72
2022-08-14T14:04:40.790Z,99469.22
2022-08-14T14:07:13.056Z,99466.31
2022-08-14T14:09:52.686Z,99467.94
2022-08-14T14:12:37.814Z,99464.22
2022-08-14T14:15:09.701Z,99462.91
2022-08-14T14:17:38.997Z,99460.31
2022-08-14T14:20:11.354Z,99451.59
2022-08-14T14:23:01.802Z,99452.59
2022-08-14T14:25:45.835Z,99460.75
2022-08-14T14:28:17.203Z,99444.94
2022-08-14T14:30:56.984Z,99441.75
2022-08-14T14:33:45.208Z,99444.25
2022-08-14T14:36:14.983Z,99442.66
2022-08-14T14:38:52.603Z,99430.13
2022-08-14T14:41:20.957Z,99427.03
2022-08-14T14:43:51.810Z,99431.50
2022-08-14T14:46:21.091Z,99429.44
2022-08-14T14:48:54.715Z,99432.25
2022-08-14T14:51:22.066Z,99426.00
2022-08-14T14:53:48.985Z,99430.06
2022-08-14T14:56:50.194Z,99430.63
2022-08-14T14:59:04.622Z,99432.44
2022-08-14T15:01:35.454Z,99440.41
2022-08-14T15:04:08.041Z,99425.38
2022-08-14T15:06:48.223Z,99423.47
2022-08-14T15:09:17.628Z,99415.88
2022-08-14T15:11:47.143Z,99407.47
2022-08-14T15:14:56.683Z,99403.28
2022-08-14T15:17:01.947Z,99403.34
2022-08-14T15:19:28.853Z,99406.88
2022-08-14T15:21:55.833Z,99409.13
2022-08-14T15:24:26.668Z,99394.56
2022-08-14T15:26:56.168Z,99395.63
2022-08-14T15:29:22.943Z,99403.13
2022-08-14T15:31:53.355Z,99405.91
2022-08-14T15:34:43.850Z,99394.38
2022-08-14T15:37:12.904Z,99405.50
2022-08-14T15:39:41.969Z,99396.84
2022-08-14T15:42:14.775Z,99397.94
2022-08-14T15:44:58.400Z,99401.97
2022-08-14T15:47:34.881Z,99398.56
2022-08-14T15:50:08.638Z,99403.88
2022-08-14T15:52:37.657Z,99399.97
2022-08-14T15:55:10.425Z,99404.22
2022-08-14T15:58:02.144Z,99406.59
2022-08-14T16:00:49.715Z,99399.44
2022-08-14T16:03:27.934Z,99399.44
2022-08-14T16:06:11.194Z,99393.31
2022-08-14T16:08:44.153Z,99394.53
2022-08-14T16:11:11.679Z,99393.88
2022-08-14T16:13:43.131Z,99392.97
2022-08-14T16:16:34.736Z,99392.75
2022-08-14T16:19:00.829Z,99388.19
2022-08-14T16:21:29.470Z,99386.22
2022-08-14T16:23:59.921Z,99398.16
2022-08-14T16:26:29.984Z,99381.16
2022-08-14T16:29:07.553Z,99391.09
2022-08-14T16:31:38.358Z,99392.69
2022-08-14T16:34:44.255Z,99384.03
2022-08-14T16:36:53.850Z,99386.06
2022-08-14T16:39:22.600Z,99380.09
2022-08-14T16:41:53.582Z,99374.94
2022-08-14T16:44:33.533Z,99370.81
2022-08-14T16:47:04.219Z,99374.97
2022-08-14T16:50:03.177Z,99370.28
2022-08-14T16:52:26.412Z,99368.66
2022-08-14T16:55:09.337Z,99377.75
2022-08-14T16:57:54.637Z,99372.69
2022-08-14T17:00:43.727Z,99367.97
2022-08-14T17:03:13.086Z,99372.31
2022-08-14T17:05:43.788Z,99360.13
2022-08-14T17:08:33.074Z,99359.69
2022-08-14T17:11:11.177Z,99371.63
2022-08-14T17:13:58.828Z,99357.25
2022-08-14T17:16:29.603Z,99366.00
2022-08-14T17:19:00.655Z,99358.88
2022-08-14T17:21:41.596Z,99355.94
2022-08-14T17:24:56.838Z,99354.97
2022-08-14T17:27:04.173Z,99353.78
2022-08-14T17:29:33.981Z,99349.13
2022-08-14T17:32:22.084Z,99346.44
2022-08-14T17:34:57.662Z,99350.78
2022-08-14T17:37:55.582Z,99352.72
2022-08-14T17:40:30.671Z,99351.91
2022-08-14T17:43:01.642Z,99346.91
2022-08-14T17:45:38.962Z,99341.47
2022-08-14T17:49:14.856Z,99345.78
2022-08-14T17:51:14.121Z,99352.13
2022-08-14T17:53:53.637Z,99350.19
2022-08-14T17:56:28.965Z,99350.22
2022-08-14T17:59:04.961Z,99363.28
2022-08-14T18:01:36.166Z,99356.94
2022-08-14T18:04:20.952Z,99358.19
2022-08-14T18:06:58.436Z,99350.66
2022-08-14T18:09:36.224Z,99347.06
2022-08-14T18:12:04.116Z,99353.03
2022-08-14T18:14:32.180Z,99346.34
2022-08-14T18:17:02.198Z,99346.75
2022-08-14T18:19:30.407Z,99349.06
2022-08-14T18:21:59.947Z,99353.06
2022-08-14T18:24:31.862Z,99357.50
2022-08-14T18:27:10.387Z,99354.00
2022-08-14T18:29:55.005Z,99355.50
2022-08-14T18:32:31.580Z,99350.84
2022-08-14T18:35:11.231Z,99361.53
2022-08-14T18:37:41.609Z,99361.16
2022-08-14T18:40:22.493Z,99354.44
2022-08-14T18:43:03.477Z,99360.34
2022-08-14T18:45:43.007Z,99361.16
2022-08-14T18:48:19.757Z,99360.41
2022-08-14T18:50:57.956Z,99358.41
2022-08-14T18:53:34.232Z,99363.56
2022-08-14T18:56:09.702Z,99362.78
2022-08-14T18:58:57.164Z,99360.81
2022-08-14T19:01:37.153Z,99367.19
2022-08-14T19:04:04.235Z,99371.13
2022-08-14T19:06:42.872Z,99375.47
2022-08-14T19:09:53.517Z,99374.22
2022-08-14T19:12:57.640Z,99373.88
2022-08-14T19:15:28.649Z,99382.59
2022-08-14T19:18:14.107Z,99380.63
2022-08-14T19:20:49.011Z,99377.88
2022-08-14T19:23:23.081Z,99377.06
2022-08-14T19:26:36.510Z,99377.06
2022-08-14T19:29:23.506Z,99385.41
2022-08-14T19:31:55.340Z,99386.16
2022-08-14T19:34:52.251Z,99384.19
2022-08-14T19:37:52.630Z,99392.09
2022-08-14T19:40:46.761Z,99400.81
2022-08-14T19:43:55.467Z,99406.75
2022-08-14T19:46:38.724Z,99412.28
2022-08-14T19:49:02.256Z,99415.78
2022-08-14T19:51:32.839Z,99415.00
2022-08-14T19:54:13.615Z,99419.72
2022-08-14T19:56:45.408Z,99424.06
2022-08-14T19:59:19.044Z,99424.06
2022-08-14T20:01:51.134Z,99433.16
2022-08-14T20:04:47.575Z,99430.75
2022-08-14T20:07:28.305Z,99432.72
2022-08-14T20:11:04.939Z,99439.09
2022-08-14T20:13:12.359Z,99434.69
2022-08-14T20:15:47.202Z,99431.13
2022-08-14T20:18:38.985Z,99425.25
2022-08-14T20:21:05.118Z,99430.72
2022-08-14T20:23:38.119Z,99431.47
2022-08-14T20:26:31.220Z,99435.81
2022-08-14T20:29:07.327Z,99438.97
2022-08-14T20:31:36.629Z,99427.63
2022-08-14T20:34:06.211Z,99434.22
2022-08-14T20:36:37.909Z,99435.00
2022-08-14T20:39:15.324Z,99428.28
2022-08-14T20:41:51.329Z,99425.47
2022-08-14T20:44:41.073Z,99418.41
2022-08-14T20:47:14.703Z,99419.56
2022-08-14T20:49:41.651Z,99415.59
2022-08-14T20:52:18.845Z,99415.72
2022-08-14T20:54:50.984Z,99421.53
2022-08-14T20:57:19.269Z,99417.22
2022-08-14T20:59:52.010Z,99416.38
2022-08-14T21:02:34.215Z,99416.38
2022-08-14T21:05:17.081Z,99421.13
2022-08-14T21:07:50.874Z,99420.78
2022-08-14T21:10:33.303Z,99423.09
2022-08-14T21:14:09.260Z,99431.47
2022-08-14T21:15:56.901Z,99433.38
2022-08-14T21:18:28.593Z,99438.66
2022-08-14T21:20:55.799Z,99437.81
2022-08-14T21:23:23.255Z,99448.50
2022-08-14T21:25:50.253Z,99455.13
2022-08-14T21:28:29.195Z,99454.97
2022-08-14T21:30:58.160Z,99460.34
2022-08-14T21:33:24.978Z,99451.22
2022-08-14T21:35:55.558Z,99449.63
2022-08-14T21:38:33.948Z,99441.75
2022-08-14T21:41:42.630Z,99445.16
2022-08-14T21:44:17.634Z,99441.06
2022-08-14T21:46:55.568Z,99445.00
2022-08-14T21:49:25.561Z,99446.75
2022-08-14T21:52:51.987Z,99455.16
2022-08-14T21:54:55.560Z,99456.66
2022-08-14T21:57:55.905Z,99451.09
2022-08-14T22:00:30.451Z,99448.34
2022-08-14T22:03:05.408Z,99436.00
2022-08-14T22:05:32.897Z,99439.28
2022-08-14T22:08:02.641Z,99442.84
2022-08-14T22:10:29.886Z,99454.66
2022-08-14T22:13:01.414Z,99447.47
2022-08-14T22:15:29.725Z,99448.22
2022-08-14T22:17:58.250Z,99444.91
2022-08-14T22:20:28.711Z,99446.81
2022-08-14T22:22:57.655Z,99446.47
2022-08-14T22:25:33.195Z,99449.25
2022-08-14T22:28:05.572Z,99447.28
2022-08-14T22:30:33.200Z,99450.84
2022-08-14T22:33:00.541Z,99448.38
2022-08-14T22:35:29.170Z,99448.38
2022-08-14T22:38:34.660Z,99441.31
2022-08-14T22:41:12.493Z,99429.41
2022-08-14T22:43:34.939Z,99428.53
2022-08-14T22:46:06.228Z,99428.91
2022-08-14T22:48:43.029Z,99433.25
2022-08-14T22:51:09.941Z,99435.31
2022-08-14T22:53:40.410Z,99446.91
2022-08-14T22:56:20.819Z,99450.59
2022-08-14T22:58:53.976Z,99447.22
2022-08-14T23:01:57.249Z,99444.94
2022-08-14T23:04:35.968Z,99443.22
2022-08-14T23:07:21.611Z,99445.97
2022-08-14T23:10:32.146Z,99450.84
2022-08-14T23:12:54.795Z,99454.81
2022-08-14T23:15:24.250Z,99456.03
2022-08-14T23:17:55.674Z,99456.50
2022-08-14T23:20:23.196Z,99459.38
2022-08-14T23:22:56.532Z,99456.81
2022-08-14T23:25:56.773Z,99457.00
2022-08-14T23:28:34.736Z,99461.53
2022-08-14T23:31:12.890Z,99458.81
2022-08-14T23:33:45.917Z,99456.03
2022-08-14T23:36:31.867Z,99462.72
2022-08-14T23:39:10.415Z,99458.72
2022-08-14T23:41:46.464Z,99450.03
2022-08-14T23:44:22.487Z,99449.22
2022-08-14T23:46:56.936Z,99453.81
2022-08-14T23:49:28.632Z,99449.91
2022-08-14T23:52:50.578Z,99446.66
2022-08-14T23:55:02.527Z,99437.28
2022-08-14T23:57:30.738Z,99441.50
2022-08-14T23:59:57.578Z,99441.09
